sensor_id;sensor_type;location;lat;lon;timestamp;temperature;humidity
27266;DHT22;14766;51.380;13.762;2023-04-15T00:01:52;12.00;73.60
27266;DHT22;14766;51.380;13.762;2023-04-15T00:04:20;12.00;73.70
27266;DHT22;14766;51.380;13.762;2023-04-15T00:06:51;12.00;73.60
27266;DHT22;14766;51.380;13.762;2023-04-15T00:09:19;12.00;73.70
27266;DHT22;14766;51.380;13.762;2023-04-15T00:11:46;12.00;73.70
27266;DHT22;14766;51.380;13.762;2023-04-15T00:14:13;12.00;73.70
27266;DHT22;14766;51.380;13.762;2023-04-15T00:16:41;12.00;73.80
27266;DHT22;14766;51.380;13.762;2023-04-15T00:19:10;12.00;73.80
27266;DHT22;14766;51.380;13.762;2023-04-15T00:21:39;12.00;73.80
27266;DHT22;14766;51.380;13.762;2023-04-15T00:24:06;12.00;73.80
27266;DHT22;14766;51.380;13.762;2023-04-15T00:26:34;12.00;73.70
27266;DHT22;14766;51.380;13.762;2023-04-15T00:29:03;12.00;73.80
27266;DHT22;14766;51.380;13.762;2023-04-15T00:31:30;12.00;73.80
27266;DHT22;14766;51.380;13.762;2023-04-15T00:33:57;12.00;73.80
27266;DHT22;14766;51.380;13.762;2023-04-15T00:36:25;12.00;73.80
27266;DHT22;14766;51.380;13.762;2023-04-15T00:38:53;12.00;73.90
27266;DHT22;14766;51.380;13.762;2023-04-15T00:41:21;12.00;73.90
27266;DHT22;14766;51.380;13.762;2023-04-15T00:43:50;12.00;73.80
27266;DHT22;14766;51.380;13.762;2023-04-15T00:46:18;12.00;73.90
27266;DHT22;14766;51.380;13.762;2023-04-15T00:48:47;12.00;73.80
27266;DHT22;14766;51.380;13.762;2023-04-15T00:51:15;12.00;73.80
27266;DHT22;14766;51.380;13.762;2023-04-15T00:53:42;12.00;73.80
27266;DHT22;14766;51.380;13.762;2023-04-15T00:56:09;12.00;73.70
27266;DHT22;14766;51.380;13.762;2023-04-15T00:58:37;12.00;73.80
27266;DHT22;14766;51.380;13.762;2023-04-15T01:01:04;12.10;73.80
27266;DHT22;14766;51.380;13.762;2023-04-15T01:03:32;12.10;73.80
27266;DHT22;14766;51.380;13.762;2023-04-15T01:06:00;12.10;73.80
27266;DHT22;14766;51.380;13.762;2023-04-15T01:08:30;12.10;73.70
27266;DHT22;14766;51.380;13.762;2023-04-15T01:11:00;12.10;73.70
27266;DHT22;14766;51.380;13.762;2023-04-15T01:13:29;12.10;73.60
27266;DHT22;14766;51.380;13.762;2023-04-15T01:15:57;12.10;73.60
27266;DHT22;14766;51.380;13.762;2023-04-15T01:18:24;12.10;73.60
27266;DHT22;14766;51.380;13.762;2023-04-15T01:20:52;12.10;73.60
27266;DHT22;14766;51.380;13.762;2023-04-15T01:23:23;12.10;73.60
27266;DHT22;14766;51.380;13.762;2023-04-15T01:25:50;12.10;73.50
27266;DHT22;14766;51.380;13.762;2023-04-15T01:28:19;12.10;73.60
27266;DHT22;14766;51.380;13.762;2023-04-15T01:30:47;12.10;73.60
27266;DHT22;14766;51.380;13.762;2023-04-15T01:33:14;12.10;73.50
27266;DHT22;14766;51.380;13.762;2023-04-15T01:35:42;12.10;74.10
27266;DHT22;14766;51.380;13.762;2023-04-15T01:38:10;12.10;73.50
27266;DHT22;14766;51.380;13.762;2023-04-15T01:40:38;12.10;73.60
27266;DHT22;14766;51.380;13.762;2023-04-15T01:43:06;12.10;73.60
27266;DHT22;14766;51.380;13.762;2023-04-15T01:45:34;12.10;73.60
27266;DHT22;14766;51.380;13.762;2023-04-15T01:48:03;12.10;73.70
27266;DHT22;14766;51.380;13.762;2023-04-15T01:50:30;12.10;73.60
27266;DHT22;14766;51.380;13.762;2023-04-15T01:52:57;12.10;73.60
27266;DHT22;14766;51.380;13.762;2023-04-15T01:55:24;12.10;73.70
27266;DHT22;14766;51.380;13.762;2023-04-15T01:57:52;12.10;73.70
27266;DHT22;14766;51.380;13.762;2023-04-15T02:00:20;12.10;73.60
27266;DHT22;14766;51.380;13.762;2023-04-15T02:02:48;12.10;73.60
27266;DHT22;14766;51.380;13.762;2023-04-15T02:05:17;12.10;73.50
27266;DHT22;14766;51.380;13.762;2023-04-15T02:07:46;12.10;73.70
27266;DHT22;14766;51.380;13.762;2023-04-15T02:10:14;12.10;73.70
27266;DHT22;14766;51.380;13.762;2023-04-15T02:12:42;12.10;73.70
27266;DHT22;14766;51.380;13.762;2023-04-15T02:15:10;12.10;73.80
27266;DHT22;14766;51.380;13.762;2023-04-15T02:17:37;12.10;73.70
27266;DHT22;14766;51.380;13.762;2023-04-15T02:20:05;12.10;73.70
27266;DHT22;14766;51.380;13.762;2023-04-15T02:22:32;12.10;73.70
27266;DHT22;14766;51.380;13.762;2023-04-15T02:24:59;12.10;73.60
27266;DHT22;14766;51.380;13.762;2023-04-15T02:27:26;12.10;73.70
27266;DHT22;14766;51.380;13.762;2023-04-15T02:29:54;12.10;73.80
27266;DHT22;14766;51.380;13.762;2023-04-15T02:32:22;12.10;73.80
27266;DHT22;14766;51.380;13.762;2023-04-15T02:34:50;12.10;73.70
27266;DHT22;14766;51.380;13.762;2023-04-15T02:37:17;12.10;73.80
27266;DHT22;14766;51.380;13.762;2023-04-15T02:39:46;12.10;73.80
27266;DHT22;14766;51.380;13.762;2023-04-15T02:42:14;12.10;73.80
27266;DHT22;14766;51.380;13.762;2023-04-15T02:44:41;12.10;73.90
27266;DHT22;14766;51.380;13.762;2023-04-15T02:47:09;12.10;73.80
27266;DHT22;14766;51.380;13.762;2023-04-15T02:49:37;12.10;73.90
27266;DHT22;14766;51.380;13.762;2023-04-15T02:52:05;12.20;73.80
27266;DHT22;14766;51.380;13.762;2023-04-15T02:54:32;12.10;73.90
27266;DHT22;14766;51.380;13.762;2023-04-15T02:57:01;12.20;73.80
27266;DHT22;14766;51.380;13.762;2023-04-15T02:59:28;12.20;73.90
27266;DHT22;14766;51.380;13.762;2023-04-15T03:01:55;12.20;73.90
27266;DHT22;14766;51.380;13.762;2023-04-15T03:04:27;12.20;73.90
27266;DHT22;14766;51.380;13.762;2023-04-15T03:06:55;12.20;73.90
27266;DHT22;14766;51.380;13.762;2023-04-15T03:09:23;12.10;73.80
27266;DHT22;14766;51.380;13.762;2023-04-15T03:11:51;12.20;74.00
27266;DHT22;14766;51.380;13.762;2023-04-15T03:14:21;12.20;73.90
27266;DHT22;14766;51.380;13.762;2023-04-15T03:16:50;12.20;74.00
27266;DHT22;14766;51.380;13.762;2023-04-15T03:19:18;12.20;73.90
27266;DHT22;14766;51.380;13.762;2023-04-15T03:21:45;12.20;73.90
27266;DHT22;14766;51.380;13.762;2023-04-15T03:24:13;12.20;73.90
27266;DHT22;14766;51.380;13.762;2023-04-15T03:26:43;12.20;73.90
27266;DHT22;14766;51.380;13.762;2023-04-15T03:29:15;12.20;74.00
27266;DHT22;14766;51.380;13.762;2023-04-15T03:31:42;12.20;74.00
27266;DHT22;14766;51.380;13.762;2023-04-15T03:34:10;12.20;74.00
27266;DHT22;14766;51.380;13.762;2023-04-15T03:36:37;12.20;74.00
27266;DHT22;14766;51.380;13.762;2023-04-15T03:39:04;12.20;74.00
27266;DHT22;14766;51.380;13.762;2023-04-15T03:41:31;12.20;74.00
27266;DHT22;14766;51.380;13.762;2023-04-15T03:43:58;12.20;74.00
27266;DHT22;14766;51.380;13.762;2023-04-15T03:46:26;12.20;74.10
27266;DHT22;14766;51.380;13.762;2023-04-15T03:48:53;12.20;74.00
27266;DHT22;14766;51.380;13.762;2023-04-15T03:51:20;12.20;74.10
27266;DHT22;14766;51.380;13.762;2023-04-15T03:53:48;12.20;74.10
27266;DHT22;14766;51.380;13.762;2023-04-15T03:56:16;12.20;74.10
27266;DHT22;14766;51.380;13.762;2023-04-15T03:58:43;12.20;75.00
27266;DHT22;14766;51.380;13.762;2023-04-15T04:01:10;12.20;74.10
27266;DHT22;14766;51.380;13.762;2023-04-15T04:03:37;12.20;74.20
27266;DHT22;14766;51.380;13.762;2023-04-15T04:06:05;12.20;74.10
27266;DHT22;14766;51.380;13.762;2023-04-15T04:08:34;12.20;74.20
27266;DHT22;14766;51.380;13.762;2023-04-15T04:11:01;12.20;75.10
27266;DHT22;14766;51.380;13.762;2023-04-15T04:13:28;12.20;74.20
27266;DHT22;14766;51.380;13.762;2023-04-15T04:15:55;12.30;74.30
27266;DHT22;14766;51.380;13.762;2023-04-15T04:18:25;12.30;74.40
27266;DHT22;14766;51.380;13.762;2023-04-15T04:20:52;12.30;74.40
27266;DHT22;14766;51.380;13.762;2023-04-15T04:23:21;12.30;74.40
27266;DHT22;14766;51.380;13.762;2023-04-15T04:25:48;12.30;74.40
27266;DHT22;14766;51.380;13.762;2023-04-15T04:28:15;12.30;74.30
27266;DHT22;14766;51.380;13.762;2023-04-15T04:30:42;12.30;74.40
27266;DHT22;14766;51.380;13.762;2023-04-15T04:33:09;12.30;74.40
27266;DHT22;14766;51.380;13.762;2023-04-15T04:35:37;12.30;74.40
27266;DHT22;14766;51.380;13.762;2023-04-15T04:38:04;12.30;74.40
27266;DHT22;14766;51.380;13.762;2023-04-15T04:40:31;12.30;74.40
27266;DHT22;14766;51.380;13.762;2023-04-15T04:42:59;12.30;74.40
27266;DHT22;14766;51.380;13.762;2023-04-15T04:45:26;12.30;74.50
27266;DHT22;14766;51.380;13.762;2023-04-15T04:47:53;12.40;74.50
27266;DHT22;14766;51.380;13.762;2023-04-15T04:50:22;12.40;74.50
27266;DHT22;14766;51.380;13.762;2023-04-15T04:52:49;12.30;74.50
27266;DHT22;14766;51.380;13.762;2023-04-15T04:55:17;12.30;74.50
27266;DHT22;14766;51.380;13.762;2023-04-15T04:57:45;12.30;74.70
27266;DHT22;14766;51.380;13.762;2023-04-15T05:00:12;12.40;74.70
27266;DHT22;14766;51.380;13.762;2023-04-15T05:02:40;12.40;74.80
27266;DHT22;14766;51.380;13.762;2023-04-15T05:05:10;12.30;74.80
27266;DHT22;14766;51.380;13.762;2023-04-15T05:07:37;12.40;74.90
27266;DHT22;14766;51.380;13.762;2023-04-15T05:10:05;12.40;74.90
27266;DHT22;14766;51.380;13.762;2023-04-15T05:12:33;12.40;74.80
27266;DHT22;14766;51.380;13.762;2023-04-15T05:15:00;12.40;75.00
27266;DHT22;14766;51.380;13.762;2023-04-15T05:17:27;12.40;75.10
27266;DHT22;14766;51.380;13.762;2023-04-15T05:19:54;12.40;75.10
27266;DHT22;14766;51.380;13.762;2023-04-15T05:22:21;12.40;75.10
27266;DHT22;14766;51.380;13.762;2023-04-15T05:24:48;12.50;75.10
27266;DHT22;14766;51.380;13.762;2023-04-15T05:27:16;12.50;75.20
27266;DHT22;14766;51.380;13.762;2023-04-15T05:29:46;12.50;75.20
27266;DHT22;14766;51.380;13.762;2023-04-15T05:32:15;12.50;75.20
27266;DHT22;14766;51.380;13.762;2023-04-15T05:34:42;12.50;75.20
27266;DHT22;14766;51.380;13.762;2023-04-15T05:37:10;12.50;75.20
27266;DHT22;14766;51.380;13.762;2023-04-15T05:39:37;12.50;75.30
27266;DHT22;14766;51.380;13.762;2023-04-15T05:42:04;12.50;75.30
27266;DHT22;14766;51.380;13.762;2023-04-15T05:44:33;12.50;75.30
27266;DHT22;14766;51.380;13.762;2023-04-15T05:47:00;12.60;75.40
27266;DHT22;14766;51.380;13.762;2023-04-15T05:49:27;12.60;75.30
27266;DHT22;14766;51.380;13.762;2023-04-15T05:51:54;12.60;75.30
27266;DHT22;14766;51.380;13.762;2023-04-15T05:54:21;12.60;75.30
27266;DHT22;14766;51.380;13.762;2023-04-15T05:56:51;12.60;75.30
27266;DHT22;14766;51.380;13.762;2023-04-15T05:59:18;12.60;75.40
27266;DHT22;14766;51.380;13.762;2023-04-15T06:01:45;12.70;75.40
27266;DHT22;14766;51.380;13.762;2023-04-15T06:04:12;12.70;75.50
27266;DHT22;14766;51.380;13.762;2023-04-15T06:06:40;12.70;75.50
27266;DHT22;14766;51.380;13.762;2023-04-15T06:09:09;12.70;75.60
27266;DHT22;14766;51.380;13.762;2023-04-15T06:11:36;12.70;75.70
27266;DHT22;14766;51.380;13.762;2023-04-15T06:14:04;12.70;76.70
27266;DHT22;14766;51.380;13.762;2023-04-15T06:16:31;12.80;75.90
27266;DHT22;14766;51.380;13.762;2023-04-15T06:18:58;12.80;75.90
27266;DHT22;14766;51.380;13.762;2023-04-15T06:21:26;12.80;76.10
27266;DHT22;14766;51.380;13.762;2023-04-15T06:23:53;12.80;76.10
27266;DHT22;14766;51.380;13.762;2023-04-15T06:26:20;12.80;76.20
27266;DHT22;14766;51.380;13.762;2023-04-15T06:28:48;12.90;76.30
27266;DHT22;14766;51.380;13.762;2023-04-15T06:31:16;12.90;76.20
27266;DHT22;14766;51.380;13.762;2023-04-15T06:33:44;12.90;76.30
27266;DHT22;14766;51.380;13.762;2023-04-15T06:36:12;12.90;76.40
27266;DHT22;14766;51.380;13.762;2023-04-15T06:38:41;12.90;76.60
27266;DHT22;14766;51.380;13.762;2023-04-15T06:41:08;12.90;76.70
27266;DHT22;14766;51.380;13.762;2023-04-15T06:43:38;12.90;76.60
27266;DHT22;14766;51.380;13.762;2023-04-15T06:46:05;12.90;76.70
27266;DHT22;14766;51.380;13.762;2023-04-15T06:48:32;13.00;76.80
27266;DHT22;14766;51.380;13.762;2023-04-15T06:51:00;13.00;76.60
27266;DHT22;14766;51.380;13.762;2023-04-15T06:53:27;13.00;76.70
27266;DHT22;14766;51.380;13.762;2023-04-15T06:55:55;13.00;76.90
27266;DHT22;14766;51.380;13.762;2023-04-15T06:58:22;13.00;77.00
27266;DHT22;14766;51.380;13.762;2023-04-15T07:00:49;13.00;77.00
27266;DHT22;14766;51.380;13.762;2023-04-15T07:03:18;13.00;76.90
27266;DHT22;14766;51.380;13.762;2023-04-15T07:05:48;13.00;77.20
27266;DHT22;14766;51.380;13.762;2023-04-15T07:08:15;13.00;77.00
27266;DHT22;14766;51.380;13.762;2023-04-15T07:10:43;13.00;77.10
27266;DHT22;14766;51.380;13.762;2023-04-15T07:13:11;13.00;77.20
27266;DHT22;14766;51.380;13.762;2023-04-15T07:15:38;13.00;77.10
27266;DHT22;14766;51.380;13.762;2023-04-15T07:18:05;13.10;77.20
27266;DHT22;14766;51.380;13.762;2023-04-15T07:20:32;13.10;77.40
27266;DHT22;14766;51.380;13.762;2023-04-15T07:22:59;13.10;77.50
27266;DHT22;14766;51.380;13.762;2023-04-15T07:25:27;13.00;77.60
27266;DHT22;14766;51.380;13.762;2023-04-15T07:27:54;13.00;77.30
27266;DHT22;14766;51.380;13.762;2023-04-15T07:30:22;13.10;77.60
27266;DHT22;14766;51.380;13.762;2023-04-15T07:32:50;13.00;77.70
27266;DHT22;14766;51.380;13.762;2023-04-15T07:35:17;13.00;77.60
27266;DHT22;14766;51.380;13.762;2023-04-15T07:37:47;13.00;77.10
27266;DHT22;14766;51.380;13.762;2023-04-15T07:40:16;12.90;76.40
27266;DHT22;14766;51.380;13.762;2023-04-15T07:42:44;12.90;76.10
27266;DHT22;14766;51.380;13.762;2023-04-15T07:45:14;12.80;75.90
27266;DHT22;14766;51.380;13.762;2023-04-15T07:47:42;12.70;75.80
27266;DHT22;14766;51.380;13.762;2023-04-15T07:50:09;12.70;75.80
27266;DHT22;14766;51.380;13.762;2023-04-15T07:52:38;12.60;75.70
27266;DHT22;14766;51.380;13.762;2023-04-15T07:55:06;12.60;75.80
27266;DHT22;14766;51.380;13.762;2023-04-15T07:57:37;12.60;75.80
27266;DHT22;14766;51.380;13.762;2023-04-15T08:00:04;12.60;75.80
27266;DHT22;14766;51.380;13.762;2023-04-15T08:02:40;12.50;75.90
27266;DHT22;14766;51.380;13.762;2023-04-15T08:05:09;12.50;76.20
27266;DHT22;14766;51.380;13.762;2023-04-15T08:07:37;12.50;76.00
27266;DHT22;14766;51.380;13.762;2023-04-15T08:10:05;12.50;75.90
27266;DHT22;14766;51.380;13.762;2023-04-15T08:12:32;12.50;76.00
27266;DHT22;14766;51.380;13.762;2023-04-15T08:15:00;12.50;76.90
27266;DHT22;14766;51.380;13.762;2023-04-15T08:17:28;12.50;76.00
27266;DHT22;14766;51.380;13.762;2023-04-15T08:19:55;12.50;75.90
27266;DHT22;14766;51.380;13.762;2023-04-15T08:22:22;12.60;76.20
27266;DHT22;14766;51.380;13.762;2023-04-15T08:24:51;12.60;76.10
27266;DHT22;14766;51.380;13.762;2023-04-15T08:27:18;12.50;76.10
27266;DHT22;14766;51.380;13.762;2023-04-15T08:29:45;12.50;76.10
27266;DHT22;14766;51.380;13.762;2023-04-15T08:32:13;12.50;76.00
27266;DHT22;14766;51.380;13.762;2023-04-15T08:34:40;12.50;76.00
27266;DHT22;14766;51.380;13.762;2023-04-15T08:37:07;12.50;76.00
27266;DHT22;14766;51.380;13.762;2023-04-15T08:39:36;12.60;76.00
27266;DHT22;14766;51.380;13.762;2023-04-15T08:42:10;12.60;76.00
27266;DHT22;14766;51.380;13.762;2023-04-15T08:44:37;12.60;75.90
27266;DHT22;14766;51.380;13.762;2023-04-15T08:47:07;12.60;75.80
27266;DHT22;14766;51.380;13.762;2023-04-15T08:49:39;12.60;75.80
27266;DHT22;14766;51.380;13.762;2023-04-15T08:52:08;12.60;75.80
27266;DHT22;14766;51.380;13.762;2023-04-15T08:54:37;12.60;75.70
27266;DHT22;14766;51.380;13.762;2023-04-15T08:57:05;12.60;76.50
27266;DHT22;14766;51.380;13.762;2023-04-15T08:59:32;12.60;75.60
27266;DHT22;14766;51.380;13.762;2023-04-15T09:01:59;12.60;75.60
27266;DHT22;14766;51.380;13.762;2023-04-15T09:04:30;12.70;75.70
27266;DHT22;14766;51.380;13.762;2023-04-15T09:06:57;12.70;75.60
27266;DHT22;14766;51.380;13.762;2023-04-15T09:09:24;12.70;75.70
27266;DHT22;14766;51.380;13.762;2023-04-15T09:11:51;12.70;75.70
27266;DHT22;14766;51.380;13.762;2023-04-15T09:14:18;12.70;75.80
27266;DHT22;14766;51.380;13.762;2023-04-15T09:17:04;12.70;75.70
27266;DHT22;14766;51.380;13.762;2023-04-15T09:19:33;12.70;75.70
27266;DHT22;14766;51.380;13.762;2023-04-15T09:22:01;12.80;75.70
27266;DHT22;14766;51.380;13.762;2023-04-15T09:24:38;12.80;75.40
27266;DHT22;14766;51.380;13.762;2023-04-15T09:27:05;12.80;75.30
27266;DHT22;14766;51.380;13.762;2023-04-15T09:29:33;12.80;76.00
27266;DHT22;14766;51.380;13.762;2023-04-15T09:32:15;12.80;75.00
27266;DHT22;14766;51.380;13.762;2023-04-15T09:34:43;12.80;74.70
27266;DHT22;14766;51.380;13.762;2023-04-15T09:37:12;12.80;74.70
27266;DHT22;14766;51.380;13.762;2023-04-15T09:39:57;12.80;74.70
27266;DHT22;14766;51.380;13.762;2023-04-15T09:42:24;12.80;74.70
27266;DHT22;14766;51.380;13.762;2023-04-15T09:44:52;12.80;74.70
27266;DHT22;14766;51.380;13.762;2023-04-15T09:47:29;12.80;74.70
27266;DHT22;14766;51.380;13.762;2023-04-15T09:49:58;12.80;74.60
27266;DHT22;14766;51.380;13.762;2023-04-15T09:52:26;12.80;74.60
27266;DHT22;14766;51.380;13.762;2023-04-15T09:54:57;12.80;75.00
27266;DHT22;14766;51.380;13.762;2023-04-15T09:57:36;12.80;74.60
27266;DHT22;14766;51.380;13.762;2023-04-15T10:00:05;12.80;74.70
27266;DHT22;14766;51.380;13.762;2023-04-15T10:02:41;12.80;75.00
27266;DHT22;14766;51.380;13.762;2023-04-15T10:05:10;12.90;75.10
27266;DHT22;14766;51.380;13.762;2023-04-15T10:07:39;12.90;75.10
27266;DHT22;14766;51.380;13.762;2023-04-15T10:10:09;12.90;75.10
27266;DHT22;14766;51.380;13.762;2023-04-15T10:12:37;12.90;75.00
27266;DHT22;14766;51.380;13.762;2023-04-15T10:15:14;12.90;75.20
27266;DHT22;14766;51.380;13.762;2023-04-15T10:17:44;12.90;75.40
27266;DHT22;14766;51.380;13.762;2023-04-15T10:20:16;13.00;75.50
27266;DHT22;14766;51.380;13.762;2023-04-15T10:22:45;13.00;75.60
27266;DHT22;14766;51.380;13.762;2023-04-15T10:25:14;13.00;75.70
27266;DHT22;14766;51.380;13.762;2023-04-15T10:27:44;13.10;75.40
27266;DHT22;14766;51.380;13.762;2023-04-15T10:30:12;13.10;75.20
27266;DHT22;14766;51.380;13.762;2023-04-15T10:32:40;13.10;74.60
27266;DHT22;14766;51.380;13.762;2023-04-15T10:35:08;13.20;74.80
27266;DHT22;14766;51.380;13.762;2023-04-15T10:37:37;13.20;74.60
27266;DHT22;14766;51.380;13.762;2023-04-15T10:40:25;13.10;74.30
27266;DHT22;14766;51.380;13.762;2023-04-15T10:42:59;13.10;73.90
27266;DHT22;14766;51.380;13.762;2023-04-15T10:45:31;13.10;73.80
27266;DHT22;14766;51.380;13.762;2023-04-15T10:48:01;13.10;73.30
27266;DHT22;14766;51.380;13.762;2023-04-15T10:50:30;13.10;73.40
27266;DHT22;14766;51.380;13.762;2023-04-15T10:52:58;13.00;73.50
27266;DHT22;14766;51.380;13.762;2023-04-15T10:55:32;13.00;73.50
27266;DHT22;14766;51.380;13.762;2023-04-15T10:58:00;13.00;73.50
27266;DHT22;14766;51.380;13.762;2023-04-15T11:00:30;13.00;73.30
27266;DHT22;14766;51.380;13.762;2023-04-15T11:03:07;13.00;73.10
27266;DHT22;14766;51.380;13.762;2023-04-15T11:05:51;12.90;73.20
27266;DHT22;14766;51.380;13.762;2023-04-15T11:08:19;12.90;73.20
27266;DHT22;14766;51.380;13.762;2023-04-15T11:13:15;12.80;73.30
27266;DHT22;14766;51.380;13.762;2023-04-15T11:15:43;12.80;73.50
27266;DHT22;14766;51.380;13.762;2023-04-15T11:18:28;12.80;73.60
27266;DHT22;14766;51.380;13.762;2023-04-15T11:21:04;12.80;73.50
27266;DHT22;14766;51.380;13.762;2023-04-15T11:23:39;12.80;73.10
27266;DHT22;14766;51.380;13.762;2023-04-15T11:26:10;12.80;72.70
27266;DHT22;14766;51.380;13.762;2023-04-15T11:28:43;12.80;72.70
27266;DHT22;14766;51.380;13.762;2023-04-15T11:31:15;12.90;72.80
27266;DHT22;14766;51.380;13.762;2023-04-15T11:36:26;12.90;72.80
27266;DHT22;14766;51.380;13.762;2023-04-15T11:38:54;12.90;72.30
27266;DHT22;14766;51.380;13.762;2023-04-15T11:41:22;13.00;72.50
27266;DHT22;14766;51.380;13.762;2023-04-15T11:43:49;13.00;72.40
27266;DHT22;14766;51.380;13.762;2023-04-15T11:46:17;13.00;72.40
27266;DHT22;14766;51.380;13.762;2023-04-15T11:48:46;13.10;72.20
27266;DHT22;14766;51.380;13.762;2023-04-15T11:51:15;13.10;71.60
27266;DHT22;14766;51.380;13.762;2023-04-15T11:56:19;13.10;71.30
27266;DHT22;14766;51.380;13.762;2023-04-15T11:58:48;13.10;71.70
27266;DHT22;14766;51.380;13.762;2023-04-15T12:01:17;13.10;71.70
27266;DHT22;14766;51.380;13.762;2023-04-15T12:03:46;13.20;71.60
27266;DHT22;14766;51.380;13.762;2023-04-15T12:06:32;13.20;71.90
27266;DHT22;14766;51.380;13.762;2023-04-15T12:09:09;13.30;71.80
27266;DHT22;14766;51.380;13.762;2023-04-15T12:11:44;13.40;71.80
27266;DHT22;14766;51.380;13.762;2023-04-15T12:16:41;13.40;71.70
27266;DHT22;14766;51.380;13.762;2023-04-15T12:22:14;13.50;70.70
27266;DHT22;14766;51.380;13.762;2023-04-15T12:24:44;13.50;70.50
27266;DHT22;14766;51.380;13.762;2023-04-15T12:27:16;13.50;70.70
27266;DHT22;14766;51.380;13.762;2023-04-15T12:29:43;13.60;70.60
27266;DHT22;14766;51.380;13.762;2023-04-15T12:32:15;13.60;70.60
27266;DHT22;14766;51.380;13.762;2023-04-15T12:34:53;13.60;70.60
27266;DHT22;14766;51.380;13.762;2023-04-15T12:37:24;13.60;70.90
27266;DHT22;14766;51.380;13.762;2023-04-15T12:39:52;13.60;70.60
27266;DHT22;14766;51.380;13.762;2023-04-15T12:42:20;13.60;70.10
27266;DHT22;14766;51.380;13.762;2023-04-15T12:44:48;13.60;70.00
27266;DHT22;14766;51.380;13.762;2023-04-15T12:47:15;13.60;69.90
27266;DHT22;14766;51.380;13.762;2023-04-15T12:49:42;13.60;69.90
27266;DHT22;14766;51.380;13.762;2023-04-15T12:52:09;13.60;69.90
27266;DHT22;14766;51.380;13.762;2023-04-15T12:54:38;13.70;69.60
27266;DHT22;14766;51.380;13.762;2023-04-15T12:57:05;13.70;69.80
27266;DHT22;14766;51.380;13.762;2023-04-15T12:59:34;13.70;69.90
27266;DHT22;14766;51.380;13.762;2023-04-15T13:02:04;13.70;69.70
27266;DHT22;14766;51.380;13.762;2023-04-15T13:04:32;13.70;69.40
27266;DHT22;14766;51.380;13.762;2023-04-15T13:07:00;13.70;69.70
27266;DHT22;14766;51.380;13.762;2023-04-15T13:09:27;13.70;69.60
27266;DHT22;14766;51.380;13.762;2023-04-15T13:11:54;13.70;69.10
27266;DHT22;14766;51.380;13.762;2023-04-15T13:14:26;13.80;69.10
27266;DHT22;14766;51.380;13.762;2023-04-15T13:16:53;13.80;69.10
27266;DHT22;14766;51.380;13.762;2023-04-15T13:19:21;13.80;68.80
27266;DHT22;14766;51.380;13.762;2023-04-15T13:21:48;13.80;68.20
27266;DHT22;14766;51.380;13.762;2023-04-15T13:24:15;13.80;68.40
27266;DHT22;14766;51.380;13.762;2023-04-15T13:26:43;13.80;68.30
27266;DHT22;14766;51.380;13.762;2023-04-15T13:29:10;13.80;68.50
27266;DHT22;14766;51.380;13.762;2023-04-15T13:31:38;13.80;68.30
27266;DHT22;14766;51.380;13.762;2023-04-15T13:34:04;13.90;68.80
27266;DHT22;14766;51.380;13.762;2023-04-15T13:36:32;13.90;68.20
27266;DHT22;14766;51.380;13.762;2023-04-15T13:38:59;13.90;68.50
27266;DHT22;14766;51.380;13.762;2023-04-15T13:41:26;13.90;68.40
27266;DHT22;14766;51.380;13.762;2023-04-15T13:43:54;13.90;68.20
27266;DHT22;14766;51.380;13.762;2023-04-15T13:46:21;13.90;67.60
27266;DHT22;14766;51.380;13.762;2023-04-15T13:48:48;13.90;67.40
27266;DHT22;14766;51.380;13.762;2023-04-15T13:51:15;13.90;67.30
27266;DHT22;14766;51.380;13.762;2023-04-15T13:53:42;14.00;67.80
27266;DHT22;14766;51.380;13.762;2023-04-15T13:56:10;14.00;67.40
27266;DHT22;14766;51.380;13.762;2023-04-15T13:58:39;14.00;67.70
27266;DHT22;14766;51.380;13.762;2023-04-15T14:01:07;14.00;68.00
27266;DHT22;14766;51.380;13.762;2023-04-15T14:03:34;14.00;68.00
27266;DHT22;14766;51.380;13.762;2023-04-15T14:06:03;14.00;68.30
27266;DHT22;14766;51.380;13.762;2023-04-15T14:08:31;14.10;68.30
27266;DHT22;14766;51.380;13.762;2023-04-15T14:10:58;14.10;68.00
27266;DHT22;14766;51.380;13.762;2023-04-15T14:13:29;14.10;67.90
27266;DHT22;14766;51.380;13.762;2023-04-15T14:15:57;14.20;67.80
27266;DHT22;14766;51.380;13.762;2023-04-15T14:18:24;14.30;67.60
27266;DHT22;14766;51.380;13.762;2023-04-15T14:20:51;14.30;67.60
27266;DHT22;14766;51.380;13.762;2023-04-15T14:23:19;14.40;67.50
27266;DHT22;14766;51.380;13.762;2023-04-15T14:25:50;14.40;67.10
27266;DHT22;14766;51.380;13.762;2023-04-15T14:28:17;14.50;67.30
27266;DHT22;14766;51.380;13.762;2023-04-15T14:30:46;14.50;67.10
27266;DHT22;14766;51.380;13.762;2023-04-15T14:33:14;14.50;66.60
27266;DHT22;14766;51.380;13.762;2023-04-15T14:35:42;14.60;66.40
27266;DHT22;14766;51.380;13.762;2023-04-15T14:38:09;14.60;67.00
27266;DHT22;14766;51.380;13.762;2023-04-15T14:40:38;14.60;66.90
27266;DHT22;14766;51.380;13.762;2023-04-15T14:43:06;14.60;66.50
27266;DHT22;14766;51.380;13.762;2023-04-15T14:45:36;14.70;66.30
27266;DHT22;14766;51.380;13.762;2023-04-15T14:48:08;14.70;66.50
27266;DHT22;14766;51.380;13.762;2023-04-15T14:50:35;14.70;66.10
27266;DHT22;14766;51.380;13.762;2023-04-15T14:53:02;14.80;66.20
27266;DHT22;14766;51.380;13.762;2023-04-15T14:55:30;14.80;65.90
27266;DHT22;14766;51.380;13.762;2023-04-15T14:57:57;14.80;66.10
27266;DHT22;14766;51.380;13.762;2023-04-15T15:00:24;14.80;65.80
27266;DHT22;14766;51.380;13.762;2023-04-15T15:02:53;14.80;65.70
27266;DHT22;14766;51.380;13.762;2023-04-15T15:05:21;14.90;65.10
27266;DHT22;14766;51.380;13.762;2023-04-15T15:07:49;14.90;65.50
27266;DHT22;14766;51.380;13.762;2023-04-15T15:10:18;14.90;65.00
27266;DHT22;14766;51.380;13.762;2023-04-15T15:13:07;15.00;64.60
27266;DHT22;14766;51.380;13.762;2023-04-15T15:15:36;15.00;64.90
27266;DHT22;14766;51.380;13.762;2023-04-15T15:18:03;15.00;65.20
27266;DHT22;14766;51.380;13.762;2023-04-15T15:20:31;15.10;65.30
27266;DHT22;14766;51.380;13.762;2023-04-15T15:23:00;15.10;64.90
27266;DHT22;14766;51.380;13.762;2023-04-15T15:25:27;15.10;65.20
27266;DHT22;14766;51.380;13.762;2023-04-15T15:27:54;15.10;65.00
27266;DHT22;14766;51.380;13.762;2023-04-15T15:30:22;15.10;65.00
27266;DHT22;14766;51.380;13.762;2023-04-15T15:32:49;15.10;65.00
27266;DHT22;14766;51.380;13.762;2023-04-15T15:35:16;15.10;65.90
27266;DHT22;14766;51.380;13.762;2023-04-15T15:37:44;15.10;64.90